sensor_id;sensor_type;location;lat;lon;timestamp;temperature;humidity
9723;DHT22;4900;49.306;8.500;2023-04-01T00:01:07;11.55;72.15
9723;DHT22;4900;49.306;8.500;2023-04-01T00:03:33;11.49;72.22
9723;DHT22;4900;49.306;8.500;2023-04-01T00:06:00;11.41;72.44
9723;DHT22;4900;49.306;8.500;2023-04-01T00:08:26;11.42;72.37
9723;DHT22;4900;49.306;8.500;2023-04-01T00:10:53;11.43;72.36
9723;DHT22;4900;49.306;8.500;2023-04-01T00:13:19;11.45;72.21
9723;DHT22;4900;49.306;8.500;2023-04-01T00:15:44;11.42;72.26
9723;DHT22;4900;49.306;8.500;2023-04-01T00:18:10;11.38;72.29
9723;DHT22;4900;49.306;8.500;2023-04-01T00:20:36;11.41;72.18
9723;DHT22;4900;49.306;8.500;2023-04-01T00:23:02;11.34;72.32
9723;DHT22;4900;49.306;8.500;2023-04-01T00:25:28;11.29;72.32
9723;DHT22;4900;49.306;8.500;2023-04-01T00:27:54;11.42;72.22
9723;DHT22;4900;49.306;8.500;2023-04-01T00:30:21;11.35;72.31
9723;DHT22;4900;49.306;8.500;2023-04-01T00:32:51;11.26;72.65
9723;DHT22;4900;49.306;8.500;2023-04-01T00:35:17;11.25;72.56
9723;DHT22;4900;49.306;8.500;2023-04-01T00:37:42;11.31;72.41
9723;DHT22;4900;49.306;8.500;2023-04-01T00:40:11;11.32;72.39
9723;DHT22;4900;49.306;8.500;2023-04-01T00:42:46;11.22;72.48
9723;DHT22;4900;49.306;8.500;2023-04-01T00:48:03;11.21;72.38
9723;DHT22;4900;49.306;8.500;2023-04-01T00:50:30;11.12;72.49
9723;DHT22;4900;49.306;8.500;2023-04-01T00:52:58;11.21;72.20
9723;DHT22;4900;49.306;8.500;2023-04-01T00:55:25;11.21;72.23
9723;DHT22;4900;49.306;8.500;2023-04-01T00:57:53;11.25;72.12
9723;DHT22;4900;49.306;8.500;2023-04-01T01:00:19;11.17;72.17
9723;DHT22;4900;49.306;8.500;2023-04-01T01:02:45;11.21;72.12
9723;DHT22;4900;49.306;8.500;2023-04-01T01:05:14;11.26;71.96
9723;DHT22;4900;49.306;8.500;2023-04-01T01:10:29;11.24;71.90
9723;DHT22;4900;49.306;8.500;2023-04-01T01:16:00;11.28;71.62
9723;DHT22;4900;49.306;8.500;2023-04-01T01:18:39;11.29;71.52
9723;DHT22;4900;49.306;8.500;2023-04-01T01:24:25;11.25;71.62
9723;DHT22;4900;49.306;8.500;2023-04-01T01:27:02;11.24;71.56
9723;DHT22;4900;49.306;8.500;2023-04-01T01:38:06;11.28;71.29
9723;DHT22;4900;49.306;8.500;2023-04-01T01:40:34;11.35;71.04
9723;DHT22;4900;49.306;8.500;2023-04-01T01:43:06;11.34;71.11
9723;DHT22;4900;49.306;8.500;2023-04-01T01:45:35;11.41;70.93
9723;DHT22;4900;49.306;8.500;2023-04-01T01:48:02;11.39;70.87
9723;DHT22;4900;49.306;8.500;2023-04-01T01:50:29;11.42;70.75
9723;DHT22;4900;49.306;8.500;2023-04-01T01:53:07;11.41;70.67
9723;DHT22;4900;49.306;8.500;2023-04-01T01:55:37;11.38;70.55
9723;DHT22;4900;49.306;8.500;2023-04-01T02:01:25;11.41;70.54
9723;DHT22;4900;49.306;8.500;2023-04-01T02:03:52;11.45;70.28
9723;DHT22;4900;49.306;8.500;2023-04-01T02:06:21;11.46;70.16
9723;DHT22;4900;49.306;8.500;2023-04-01T02:08:49;11.49;70.13
9723;DHT22;4900;49.306;8.500;2023-04-01T02:11:19;11.45;70.18
9723;DHT22;4900;49.306;8.500;2023-04-01T02:13:50;11.45;70.15
9723;DHT22;4900;49.306;8.500;2023-04-01T02:16:34;11.41;70.32
9723;DHT22;4900;49.306;8.500;2023-04-01T02:19:03;11.45;70.35
9723;DHT22;4900;49.306;8.500;2023-04-01T02:21:33;11.46;70.25
9723;DHT22;4900;49.306;8.500;2023-04-01T02:24:01;11.49;70.28
9723;DHT22;4900;49.306;8.500;2023-04-01T02:26:29;11.39;70.38
9723;DHT22;4900;49.306;8.500;2023-04-01T02:28:56;11.41;70.52
9723;DHT22;4900;49.306;8.500;2023-04-01T02:31:23;11.34;70.49
9723;DHT22;4900;49.306;8.500;2023-04-01T02:33:49;11.39;70.38
9723;DHT22;4900;49.306;8.500;2023-04-01T02:36:15;11.46;70.24
9723;DHT22;4900;49.306;8.500;2023-04-01T02:38:43;11.48;70.17
9723;DHT22;4900;49.306;8.500;2023-04-01T02:41:10;11.43;70.12
9723;DHT22;4900;49.306;8.500;2023-04-01T02:43:35;11.53;69.92
9723;DHT22;4900;49.306;8.500;2023-04-01T02:46:01;11.46;69.97
9723;DHT22;4900;49.306;8.500;2023-04-01T02:48:29;11.46;69.96
9723;DHT22;4900;49.306;8.500;2023-04-01T02:50:55;11.49;70.08
9723;DHT22;4900;49.306;8.500;2023-04-01T02:53:20;11.48;70.28
9723;DHT22;4900;49.306;8.500;2023-04-01T02:55:46;11.52;70.22
9723;DHT22;4900;49.306;8.500;2023-04-01T02:58:11;11.45;70.30
9723;DHT22;4900;49.306;8.500;2023-04-01T03:00:37;11.49;70.26
9723;DHT22;4900;49.306;8.500;2023-04-01T03:03:03;11.35;70.43
9723;DHT22;4900;49.306;8.500;2023-04-01T03:05:29;11.41;70.30
9723;DHT22;4900;49.306;8.500;2023-04-01T03:07:55;11.43;70.30
9723;DHT22;4900;49.306;8.500;2023-04-01T03:10:20;11.42;70.23
9723;DHT22;4900;49.306;8.500;2023-04-01T03:12:46;11.51;70.07
9723;DHT22;4900;49.306;8.500;2023-04-01T03:15:12;11.52;70.04
9723;DHT22;4900;49.306;8.500;2023-04-01T03:17:40;11.52;69.80
9723;DHT22;4900;49.306;8.500;2023-04-01T03:20:07;11.55;69.68
9723;DHT22;4900;49.306;8.500;2023-04-01T03:22:34;11.53;69.62
9723;DHT22;4900;49.306;8.500;2023-04-01T03:25:01;11.65;69.46
9723;DHT22;4900;49.306;8.500;2023-04-01T03:27:26;11.53;69.45
9723;DHT22;4900;49.306;8.500;2023-04-01T03:29:52;11.69;69.25
9723;DHT22;4900;49.306;8.500;2023-04-01T03:32:17;11.65;69.21
9723;DHT22;4900;49.306;8.500;2023-04-01T03:34:42;11.56;69.23
9723;DHT22;4900;49.306;8.500;2023-04-01T03:37:08;11.62;69.14
9723;DHT22;4900;49.306;8.500;2023-04-01T03:39:33;11.70;69.05
9723;DHT22;4900;49.306;8.500;2023-04-01T03:42:00;11.65;69.27
9723;DHT22;4900;49.306;8.500;2023-04-01T03:44:25;11.60;69.40
9723;DHT22;4900;49.306;8.500;2023-04-01T03:46:51;11.66;69.35
9723;DHT22;4900;49.306;8.500;2023-04-01T03:49:16;11.58;69.43
9723;DHT22;4900;49.306;8.500;2023-04-01T03:51:42;11.62;69.38
9723;DHT22;4900;49.306;8.500;2023-04-01T03:54:09;11.51;69.73
9723;DHT22;4900;49.306;8.500;2023-04-01T03:56:35;11.52;69.82
9723;DHT22;4900;49.306;8.500;2023-04-01T03:59:05;11.56;69.88
9723;DHT22;4900;49.306;8.500;2023-04-01T04:01:31;11.49;70.24
9723;DHT22;4900;49.306;8.500;2023-04-01T04:03:57;11.45;70.51
9723;DHT22;4900;49.306;8.500;2023-04-01T04:06:23;11.49;70.35
9723;DHT22;4900;49.306;8.500;2023-04-01T04:08:49;11.48;70.53
9723;DHT22;4900;49.306;8.500;2023-04-01T04:11:15;11.46;70.73
9723;DHT22;4900;49.306;8.500;2023-04-01T04:13:42;11.49;70.56
9723;DHT22;4900;49.306;8.500;2023-04-01T04:16:08;11.39;71.05
9723;DHT22;4900;49.306;8.500;2023-04-01T04:18:35;11.46;71.06
9723;DHT22;4900;49.306;8.500;2023-04-01T04:21:01;11.46;71.00
9723;DHT22;4900;49.306;8.500;2023-04-01T04:23:27;11.31;71.71
9723;DHT22;4900;49.306;8.500;2023-04-01T04:26:01;11.34;71.75
9723;DHT22;4900;49.306;8.500;2023-04-01T04:28:27;11.29;72.18
9723;DHT22;4900;49.306;8.500;2023-04-01T04:30:54;11.22;72.53
9723;DHT22;4900;49.306;8.500;2023-04-01T04:33:21;11.19;72.97
9723;DHT22;4900;49.306;8.500;2023-04-01T04:35:47;11.10;73.23
9723;DHT22;4900;49.306;8.500;2023-04-01T04:38:13;11.04;73.46
9723;DHT22;4900;49.306;8.500;2023-04-01T04:40:39;10.96;73.94
9723;DHT22;4900;49.306;8.500;2023-04-01T04:43:05;10.97;74.03
9723;DHT22;4900;49.306;8.500;2023-04-01T04:45:31;10.89;74.36
9723;DHT22;4900;49.306;8.500;2023-04-01T04:47:56;10.90;74.31
9723;DHT22;4900;49.306;8.500;2023-04-01T04:50:23;10.97;74.29
9723;DHT22;4900;49.306;8.500;2023-04-01T04:52:48;10.90;74.39
9723;DHT22;4900;49.306;8.500;2023-04-01T04:55:14;10.91;74.33
9723;DHT22;4900;49.306;8.500;2023-04-01T04:57:40;10.90;74.37
9723;DHT22;4900;49.306;8.500;2023-04-01T05:00:06;10.83;74.36
9723;DHT22;4900;49.306;8.500;2023-04-01T05:02:33;10.81;74.30
9723;DHT22;4900;49.306;8.500;2023-04-01T05:04:58;10.81;74.16
9723;DHT22;4900;49.306;8.500;2023-04-01T05:07:23;10.80;74.17
9723;DHT22;4900;49.306;8.500;2023-04-01T05:09:49;10.83;73.97
9723;DHT22;4900;49.306;8.500;2023-04-01T05:12:15;10.84;73.94
9723;DHT22;4900;49.306;8.500;2023-04-01T05:14:40;10.87;73.67
9723;DHT22;4900;49.306;8.500;2023-04-01T05:17:10;10.94;73.51
9723;DHT22;4900;49.306;8.500;2023-04-01T05:19:36;10.98;73.36
9723;DHT22;4900;49.306;8.500;2023-04-01T05:22:01;11.03;73.27
9723;DHT22;4900;49.306;8.500;2023-04-01T05:24:26;10.98;73.19
9723;DHT22;4900;49.306;8.500;2023-04-01T05:26:52;10.98;73.13
9723;DHT22;4900;49.306;8.500;2023-04-01T05:29:17;11.04;72.99
9723;DHT22;4900;49.306;8.500;2023-04-01T05:31:43;11.08;72.79
9723;DHT22;4900;49.306;8.500;2023-04-01T05:34:08;11.12;72.65
9723;DHT22;4900;49.306;8.500;2023-04-01T05:36:33;11.15;72.57
9723;DHT22;4900;49.306;8.500;2023-04-01T05:39:00;11.17;72.41
9723;DHT22;4900;49.306;8.500;2023-04-01T05:41:26;11.19;72.30
9723;DHT22;4900;49.306;8.500;2023-04-01T05:43:51;11.28;72.09
9723;DHT22;4900;49.306;8.500;2023-04-01T05:46:16;11.32;71.94
9723;DHT22;4900;49.306;8.500;2023-04-01T05:48:42;11.31;71.91
9723;DHT22;4900;49.306;8.500;2023-04-01T05:51:12;11.26;71.81
9723;DHT22;4900;49.306;8.500;2023-04-01T05:53:38;11.29;71.69
9723;DHT22;4900;49.306;8.500;2023-04-01T05:56:04;11.32;71.83
9723;DHT22;4900;49.306;8.500;2023-04-01T05:58:30;11.43;71.63
9723;DHT22;4900;49.306;8.500;2023-04-01T06:01:10;11.43;71.43
9723;DHT22;4900;49.306;8.500;2023-04-01T06:03:36;11.32;71.73
9723;DHT22;4900;49.306;8.500;2023-04-01T06:06:02;11.39;71.71
9723;DHT22;4900;49.306;8.500;2023-04-01T06:08:29;11.48;71.58
9723;DHT22;4900;49.306;8.500;2023-04-01T06:13:34;11.55;71.38
9723;DHT22;4900;49.306;8.500;2023-04-01T06:16:26;11.58;71.29
9723;DHT22;4900;49.306;8.500;2023-04-01T06:26:53;11.69;71.14
9723;DHT22;4900;49.306;8.500;2023-04-01T06:32:20;11.69;71.67
9723;DHT22;4900;49.306;8.500;2023-04-01T06:54:44;11.45;73.73
9723;DHT22;4900;49.306;8.500;2023-04-01T06:57:46;11.49;73.76
9723;DHT22;4900;49.306;8.500;2023-04-01T07:00:22;11.56;73.67
9723;DHT22;4900;49.306;8.500;2023-04-01T07:02:55;11.53;73.62
9723;DHT22;4900;49.306;8.500;2023-04-01T07:05:24;11.53;73.56
9723;DHT22;4900;49.306;8.500;2023-04-01T07:07:55;11.53;73.57
9723;DHT22;4900;49.306;8.500;2023-04-01T07:10:44;11.46;73.72
9723;DHT22;4900;49.306;8.500;2023-04-01T07:13:20;11.43;73.87
9723;DHT22;4900;49.306;8.500;2023-04-01T07:19:24;11.59;73.52
9723;DHT22;4900;49.306;8.500;2023-04-01T07:22:18;11.55;73.77
9723;DHT22;4900;49.306;8.500;2023-04-01T07:24:47;11.53;73.65
9723;DHT22;4900;49.306;8.500;2023-04-01T07:27:14;11.60;73.68
9723;DHT22;4900;49.306;8.500;2023-04-01T07:29:40;11.59;73.80
9723;DHT22;4900;49.306;8.500;2023-04-01T07:32:31;11.69;73.72
9723;DHT22;4900;49.306;8.500;2023-04-01T07:38:19;11.81;73.63
9723;DHT22;4900;49.306;8.500;2023-04-01T07:40:52;11.93;73.59
9723;DHT22;4900;49.306;8.500;2023-04-01T07:51:04;12.48;73.03
9723;DHT22;4900;49.306;8.500;2023-04-01T08:07:10;13.29;70.65
9723;DHT22;4900;49.306;8.500;2023-04-01T08:09:48;13.43;70.22
9723;DHT22;4900;49.306;8.500;2023-04-01T08:23:11;13.86;69.65
9723;DHT22;4900;49.306;8.500;2023-04-01T08:25:40;14.19;68.95
9723;DHT22;4900;49.306;8.500;2023-04-01T08:28:15;14.06;68.63
9723;DHT22;4900;49.306;8.500;2023-04-01T08:30:50;14.12;68.49
9723;DHT22;4900;49.306;8.500;2023-04-01T08:33:31;14.16;68.33
9723;DHT22;4900;49.306;8.500;2023-04-01T08:36:28;14.08;68.36
9723;DHT22;4900;49.306;8.500;2023-04-01T08:39:04;13.80;69.15
9723;DHT22;4900;49.306;8.500;2023-04-01T08:44:39;13.63;69.77
9723;DHT22;4900;49.306;8.500;2023-04-01T08:47:29;13.49;70.28
9723;DHT22;4900;49.306;8.500;2023-04-01T08:53:00;13.42;70.47
9723;DHT22;4900;49.306;8.500;2023-04-01T08:55:36;13.31;70.92
9723;DHT22;4900;49.306;8.500;2023-04-01T09:03:41;13.44;70.86
9723;DHT22;4900;49.306;8.500;2023-04-01T09:06:28;13.54;70.47
9723;DHT22;4900;49.306;8.500;2023-04-01T09:09:19;13.60;70.15
9723;DHT22;4900;49.306;8.500;2023-04-01T09:17:34;13.95;69.27
9723;DHT22;4900;49.306;8.500;2023-04-01T09:23:29;14.08;68.74
9723;DHT22;4900;49.306;8.500;2023-04-01T09:29:05;14.22;68.50
9723;DHT22;4900;49.306;8.500;2023-04-01T09:31:55;14.25;68.49
9723;DHT22;4900;49.306;8.500;2023-04-01T09:37:27;14.16;68.55
9723;DHT22;4900;49.306;8.500;2023-04-01T09:48:51;14.44;68.09
9723;DHT22;4900;49.306;8.500;2023-04-01T09:51:50;14.43;67.86
9723;DHT22;4900;49.306;8.500;2023-04-01T09:54:31;14.60;67.39
9723;DHT22;4900;49.306;8.500;2023-04-01T10:00:15;14.50;67.75
9723;DHT22;4900;49.306;8.500;2023-04-01T10:28:20;15.16;66.59
9723;DHT22;4900;49.306;8.500;2023-04-01T10:33:23;15.53;65.74
9723;DHT22;4900;49.306;8.500;2023-04-01T10:54:49;15.71;65.15
9723;DHT22;4900;49.306;8.500;2023-04-01T11:33:52;14.44;68.67
9723;DHT22;4900;49.306;8.500;2023-04-01T11:42:11;14.52;68.39
9723;DHT22;4900;49.306;8.500;2023-04-01T11:44:56;14.77;67.97
9723;DHT22;4900;49.306;8.500;2023-04-01T11:56:02;14.81;67.93
9723;DHT22;4900;49.306;8.500;2023-04-01T12:02:06;14.84;67.63
9723;DHT22;4900;49.306;8.500;2023-04-01T12:10:05;15.29;66.34
9723;DHT22;4900;49.306;8.500;2023-04-01T12:35:00;15.33;65.73
9723;DHT22;4900;49.306;8.500;2023-04-01T12:40:36;15.20;65.91
9723;DHT22;4900;49.306;8.500;2023-04-01T12:46:03;15.04;66.24
9723;DHT22;4900;49.306;8.500;2023-04-01T12:56:30;15.06;66.01
9723;DHT22;4900;49.306;8.500;2023-04-01T12:59:23;14.98;66.09
9723;DHT22;4900;49.306;8.500;2023-04-01T13:02:01;15.01;66.17
9723;DHT22;4900;49.306;8.500;2023-04-01T13:13:03;15.01;66.14
9723;DHT22;4900;49.306;8.500;2023-04-01T13:15:52;15.01;66.14
9723;DHT22;4900;49.306;8.500;2023-04-01T13:31:45;14.98;66.33
9723;DHT22;4900;49.306;8.500;2023-04-01T13:34:39;15.01;66.05
9723;DHT22;4900;49.306;8.500;2023-04-01T13:37:46;15.01;65.96
9723;DHT22;4900;49.306;8.500;2023-04-01T13:40:42;14.99;66.10
9723;DHT22;4900;49.306;8.500;2023-04-01T13:43:31;14.85;66.47
9723;DHT22;4900;49.306;8.500;2023-04-01T13:54:44;15.18;65.44
9723;DHT22;4900;49.306;8.500;2023-04-01T14:25:23;14.64;64.57
9723;DHT22;4900;49.306;8.500;2023-04-01T14:37:00;14.33;65.25
9723;DHT22;4900;49.306;8.500;2023-04-01T14:49:54;14.25;65.48
9723;DHT22;4900;49.306;8.500;2023-04-01T14:52:33;14.21;65.69
9723;DHT22;4900;49.306;8.500;2023-04-01T14:55:00;14.12;65.91
9723;DHT22;4900;49.306;8.500;2023-04-01T14:57:31;14.04;66.36
9723;DHT22;4900;49.306;8.500;2023-04-01T15:00:09;14.14;66.39
9723;DHT22;4900;49.306;8.500;2023-04-01T15:02:53;14.12;66.60
9723;DHT22;4900;49.306;8.500;2023-04-01T15:40:42;13.95;67.74
9723;DHT22;4900;49.306;8.500;2023-04-01T15:43:30;14.02;67.67
9723;DHT22;4900;49.306;8.500;2023-04-01T15:46:14;13.93;67.75
9723;DHT22;4900;49.306;8.500;2023-04-01T15:51:31;13.88;67.55
9723;DHT22;4900;49.306;8.500;2023-04-01T15:57:05;13.83;67.43
9723;DHT22;4900;49.306;8.500;2023-04-01T16:02:21;13.86;67.28
9723;DHT22;4900;49.306;8.500;2023-04-01T16:07:47;13.90;66.91
9723;DHT22;4900;49.306;8.500;2023-04-01T16:22:05;13.84;67.12
9723;DHT22;4900;49.306;8.500;2023-04-01T16:33:04;13.73;67.28
9723;DHT22;4900;49.306;8.500;2023-04-01T16:36:10;13.73;67.26
9723;DHT22;4900;49.306;8.500;2023-04-01T16:46:32;13.60;67.73
9723;DHT22;4900;49.306;8.500;2023-04-01T16:57:50;13.40;68.08
9723;DHT22;4900;49.306;8.500;2023-04-01T17:00:36;13.22;68.43
9723;DHT22;4900;49.306;8.500;2023-04-01T17:03:17;13.24;68.31
9723;DHT22;4900;49.306;8.500;2023-04-01T17:08:31;13.24;67.97
9723;DHT22;4900;49.306;8.500;2023-04-01T17:11:20;13.04;67.99
9723;DHT22;4900;49.306;8.500;2023-04-01T17:22:37;12.94;67.77
9723;DHT22;4900;49.306;8.500;2023-04-01T17:33:45;12.85;67.53
9723;DHT22;4900;49.306;8.500;2023-04-01T17:36:21;12.79;67.68
9723;DHT22;4900;49.306;8.500;2023-04-01T17:39:20;12.71;67.72
9723;DHT22;4900;49.306;8.500;2023-04-01T17:52:33;12.59;67.89
9723;DHT22;4900;49.306;8.500;2023-04-01T18:05:52;12.38;68.55
9723;DHT22;4900;49.306;8.500;2023-04-01T18:11:27;12.42;68.37
9723;DHT22;4900;49.306;8.500;2023-04-01T18:14:31;12.35;68.56
9723;DHT22;4900;49.306;8.500;2023-04-01T18:17:33;12.29;68.50
9723;DHT22;4900;49.306;8.500;2023-04-01T18:25:34;12.33;68.47
9723;DHT22;4900;49.306;8.500;2023-04-01T18:28:19;12.28;68.47
9723;DHT22;4900;49.306;8.500;2023-04-01T18:36:16;12.13;69.16
9723;DHT22;4900;49.306;8.500;2023-04-01T18:38:57;12.13;69.27
9723;DHT22;4900;49.306;8.500;2023-04-01T18:41:34;12.17;69.45
9723;DHT22;4900;49.306;8.500;2023-04-01T18:53:35;11.93;71.32
9723;DHT22;4900;49.306;8.500;2023-04-01T18:56:11;11.84;71.60
9723;DHT22;4900;49.306;8.500;2023-04-01T18:59:06;11.86;71.59
9723;DHT22;4900;49.306;8.500;2023-04-01T19:04:39;11.83;71.62
9723;DHT22;4900;49.306;8.500;2023-04-01T19:20:53;11.76;71.77
9723;DHT22;4900;49.306;8.500;2023-04-01T19:26:27;11.81;71.46
9723;DHT22;4900;49.306;8.500;2023-04-01T19:35:38;11.74;71.75
9723;DHT22;4900;49.306;8.500;2023-04-01T19:43:53;11.70;71.93
9723;DHT22;4900;49.306;8.500;2023-04-01T19:46:38;11.74;71.85
9723;DHT22;4900;49.306;8.500;2023-04-01T19:49:35;11.77;71.99
9723;DHT22;4900;49.306;8.500;2023-04-01T19:52:17;11.73;72.13
9723;DHT22;4900;49.306;8.500;2023-04-01T19:58:05;11.70;72.30
9723;DHT22;4900;49.306;8.500;2023-04-01T20:03:24;11.62;72.59
9723;DHT22;4900;49.306;8.500;2023-04-01T20:08:36;11.59;72.89
9723;DHT22;4900;49.306;8.500;2023-04-01T20:14:32;11.56;73.00
9723;DHT22;4900;49.306;8.500;2023-04-01T20:19:39;11.58;73.06
9723;DHT22;4900;49.306;8.500;2023-04-01T20:24:48;11.56;73.17
9723;DHT22;4900;49.306;8.500;2023-04-01T20:30:04;11.52;73.39
9723;DHT22;4900;49.306;8.500;2023-04-01T20:33:07;11.49;73.54
9723;DHT22;4900;49.306;8.500;2023-04-01T20:36:26;11.45;73.44
9723;DHT22;4900;49.306;8.500;2023-04-01T20:52:57;11.51;74.08
9723;DHT22;4900;49.306;8.500;2023-04-01T21:09:55;11.41;75.91
9723;DHT22;4900;49.306;8.500;2023-04-01T21:15:22;11.35;75.99
9723;DHT22;4900;49.306;8.500;2023-04-01T21:24:23;11.35;76.22
9723;DHT22;4900;49.306;8.500;2023-04-01T21:35:29;11.22;76.06
9723;DHT22;4900;49.306;8.500;2023-04-01T21:43:46;11.14;76.16
9723;DHT22;4900;49.306;8.500;2023-04-01T21:51:56;11.08;76.01
9723;DHT22;4900;49.306;8.500;2023-04-01T21:57:46;11.10;75.96
9723;DHT22;4900;49.306;8.500;2023-04-01T22:00:25;11.11;75.88
9723;DHT22;4900;49.306;8.500;2023-04-01T22:05:40;11.10;75.96
9723;DHT22;4900;49.306;8.500;2023-04-01T22:13:48;11.07;76.01
9723;DHT22;4900;49.306;8.500;2023-04-01T22:16:39;11.07;76.01
9723;DHT22;4900;49.306;8.500;2023-04-01T22:27:23;11.06;76.01
9723;DHT22;4900;49.306;8.500;2023-04-01T22:32:48;11.12;75.98
9723;DHT22;4900;49.306;8.500;2023-04-01T22:38:03;11.15;75.86
9723;DHT22;4900;49.306;8.500;2023-04-01T22:43:47;11.14;75.86
9723;DHT22;4900;49.306;8.500;2023-04-01T22:46:33;11.19;75.73
9723;DHT22;4900;49.306;8.500;2023-04-01T22:49:11;11.17;75.83
9723;DHT22;4900;49.306;8.500;2023-04-01T22:57:14;11.15;75.94
9723;DHT22;4900;49.306;8.500;2023-04-01T23:02:16;11.12;75.99
9723;DHT22;4900;49.306;8.500;2023-04-01T23:04:48;11.19;75.93
9723;DHT22;4900;49.306;8.500;2023-04-01T23:07:45;11.15;75.78
9723;DHT22;4900;49.306;8.500;2023-04-01T23:10:42;11.15;75.83
9723;DHT22;4900;49.306;8.500;2023-04-01T23:13:15;11.18;75.93
9723;DHT22;4900;49.306;8.500;2023-04-01T23:15:42;11.15;76.12
9723;DHT22;4900;49.306;8.500;2023-04-01T23:18:36;11.15;76.14
9723;DHT22;4900;49.306;8.500;2023-04-01T23:28:55;11.07;76.74
9723;DHT22;4900;49.306;8.500;2023-04-01T23:32:10;11.03;76.87
9723;DHT22;4900;49.306;8.500;2023-04-01T23:37:05;10.97;77.04
9723;DHT22;4900;49.306;8.500;2023-04-01T23:39:35;11.01;76.92
9723;DHT22;4900;49.306;8.500;2023-04-01T23:42:27;10.96;77.05
9723;DHT22;4900;49.306;8.500;2023-04-01T23:44:54;10.94;77.24
9723;DHT22;4900;49.306;8.500;2023-04-01T23:47:30;10.90;77.33
9723;DHT22;4900;49.306;8.500;2023-04-01T23:50:01;10.87;77.33
9723;DHT22;4900;49.306;8.500;2023-04-01T23:52:31;10.90;77.40
9723;DHT22;4900;49.306;8.500;2023-04-01T23:55:26;10.90;77.20
